sensor_id;sensor_type;location;lat;lon;timestamp;pressure;altitude;pressure_sealevel;temperature;humidity
28167;BME280;15455;53.376;-6.262;2022-12-07T00:00:52;102578.91;;;2.04;100.00
28167;BME280;15455;53.376;-6.262;2022-12-07T00:03:38;102575.28;;;2.01;100.00
28167;BME280;15455;53.376;-6.262;2022-12-07T00:06:25;102572.56;;;1.99;100.00
28167;BME280;15455;53.376;-6.262;2022-12-07T00:09:13;102576.66;;;1.96;100.00
28167;BME280;15455;53.376;-6.262;2022-12-07T00:11:59;102570.22;;;1.89;100.00
28167;BME280;15455;53.376;-6.262;2022-12-07T00:14:44;102571.63;;;1.84;100.00
28167;BME280;15455;53.376;-6.262;2022-12-07T00:17:30;102572.31;;;1.81;100.00
28167;BME280;15455;53.376;-6.262;2022-12-07T00:20:15;102571.03;;;1.74;100.00
28167;BME280;15455;53.376;-6.262;2022-12-07T00:23:00;102564.31;;;1.77;100.00
28167;BME280;15455;53.376;-6.262;2022-12-07T00:25:46;102560.75;;;1.74;100.00
28167;BME280;15455;53.376;-6.262;2022-12-07T00:28:33;102565.91;;;1.74;100.00
28167;BME280;15455;53.376;-6.262;2022-12-07T00:31:21;102563.41;;;1.76;100.00
28167;BME280;15455;53.376;-6.262;2022-12-07T00:34:12;102565.06;;;1.89;100.00
28167;BME280;15455;53.376;-6.262;2022-12-07T00:36:58;102562.69;;;1.92;100.00
28167;BME280;15455;53.376;-6.262;2022-12-07T00:39:45;102559.22;;;1.91;100.00
28167;BME280;15455;53.376;-6.262;2022-12-07T00:42:31;102562.00;;;1.95;100.00
28167;BME280;15455;53.376;-6.262;2022-12-07T00:45:16;102560.59;;;2.00;100.00
28167;BME280;15455;53.376;-6.262;2022-12-07T00:48:02;102559.19;;;2.05;100.00
28167;BME280;15455;53.376;-6.262;2022-12-07T00:50:48;102568.09;;;2.10;100.00
28167;BME280;15455;53.376;-6.262;2022-12-07T00:53:34;102556.19;;;2.12;100.00
28167;BME280;15455;53.376;-6.262;2022-12-07T00:56:27;102567.59;;;2.16;100.00
28167;BME280;15455;53.376;-6.262;2022-12-07T00:59:13;102562.53;;;2.17;100.00
28167;BME280;15455;53.376;-6.262;2022-12-07T01:02:02;102558.25;;;2.18;100.00
28167;BME280;15455;53.376;-6.262;2022-12-07T01:04:47;102556.59;;;2.18;100.00
28167;BME280;15455;53.376;-6.262;2022-12-07T01:07:33;102560.13;;;2.20;100.00
28167;BME280;15455;53.376;-6.262;2022-12-07T01:10:18;102562.63;;;2.19;100.00
28167;BME280;15455;53.376;-6.262;2022-12-07T01:13:04;102560.13;;;2.20;100.00
28167;BME280;15455;53.376;-6.262;2022-12-07T01:15:49;102555.06;;;2.22;100.00
28167;BME280;15455;53.376;-6.262;2022-12-07T01:18:35;102557.66;;;2.22;100.00
28167;BME280;15455;53.376;-6.262;2022-12-07T01:21:23;102558.66;;;2.24;100.00
28167;BME280;15455;53.376;-6.262;2022-12-07T01:24:10;102561.94;;;2.21;100.00
28167;BME280;15455;53.376;-6.262;2022-12-07T01:26:56;102555.16;;;2.23;100.00
28167;BME280;15455;53.376;-6.262;2022-12-07T01:29:42;102554.47;;;2.26;100.00
28167;BME280;15455;53.376;-6.262;2022-12-07T01:32:28;102548.34;;;2.24;100.00
28167;BME280;15455;53.376;-6.262;2022-12-07T01:35:14;102540.72;;;2.25;100.00
28167;BME280;15455;53.376;-6.262;2022-12-07T01:37:59;102536.53;;;2.28;100.00
28167;BME280;15455;53.376;-6.262;2022-12-07T01:40:44;102530.31;;;2.24;100.00
28167;BME280;15455;53.376;-6.262;2022-12-07T01:43:31;102534.56;;;2.23;100.00
28167;BME280;15455;53.376;-6.262;2022-12-07T01:46:17;102519.72;;;2.19;100.00
28167;BME280;15455;53.376;-6.262;2022-12-07T01:49:06;102519.44;;;2.15;100.00
28167;BME280;15455;53.376;-6.262;2022-12-07T01:52:01;102520.13;;;2.12;100.00
28167;BME280;15455;53.376;-6.262;2022-12-07T01:54:52;102522.34;;;2.06;100.00
28167;BME280;15455;53.376;-6.262;2022-12-07T01:57:45;102521.88;;;1.98;100.00
28167;BME280;15455;53.376;-6.262;2022-12-07T02:00:33;102527.56;;;1.93;100.00
28167;BME280;15455;53.376;-6.262;2022-12-07T02:03:24;102524.59;;;1.86;100.00
28167;BME280;15455;53.376;-6.262;2022-12-07T02:06:16;102525.22;;;1.82;100.00
28167;BME280;15455;53.376;-6.262;2022-12-07T02:09:02;102520.66;;;1.78;100.00
28167;BME280;15455;53.376;-6.262;2022-12-07T02:11:48;102520.66;;;1.78;100.00
28167;BME280;15455;53.376;-6.262;2022-12-07T02:14:34;102514.50;;;1.76;100.00
28167;BME280;15455;53.376;-6.262;2022-12-07T02:17:29;102518.00;;;1.77;100.00
28167;BME280;15455;53.376;-6.262;2022-12-07T02:20:26;102521.34;;;1.76;100.00
28167;BME280;15455;53.376;-6.262;2022-12-07T02:26:44;102524.72;;;1.74;100.00
28167;BME280;15455;53.376;-6.262;2022-12-07T02:32:57;102522.94;;;1.73;100.00
28167;BME280;15455;53.376;-6.262;2022-12-07T02:38:58;102513.44;;;1.72;100.00
28167;BME280;15455;53.376;-6.262;2022-12-07T02:41:51;102513.53;;;1.74;100.00
28167;BME280;15455;53.376;-6.262;2022-12-07T02:44:39;102511.75;;;1.73;100.00
28167;BME280;15455;53.376;-6.262;2022-12-07T02:47:26;102506.50;;;1.71;100.00
28167;BME280;15455;53.376;-6.262;2022-12-07T02:50:14;102503.84;;;1.70;100.00
28167;BME280;15455;53.376;-6.262;2022-12-07T02:53:00;102509.78;;;1.69;100.00
28167;BME280;15455;53.376;-6.262;2022-12-07T02:55:46;102504.63;;;1.69;100.00
28167;BME280;15455;53.376;-6.262;2022-12-07T03:08:05;102499.47;;;1.69;100.00
28167;BME280;15455;53.376;-6.262;2022-12-07T03:10:59;102491.75;;;1.69;100.00
28167;BME280;15455;53.376;-6.262;2022-12-07T03:17:19;102486.00;;;1.73;100.00
28167;BME280;15455;53.376;-6.262;2022-12-07T03:20:09;102484.34;;;1.73;100.00
28167;BME280;15455;53.376;-6.262;2022-12-07T03:22:57;102490.47;;;1.76;100.00
28167;BME280;15455;53.376;-6.262;2022-12-07T03:25:47;102487.09;;;1.77;100.00
28167;BME280;15455;53.376;-6.262;2022-12-07T03:28:41;102484.63;;;1.78;100.00
28167;BME280;15455;53.376;-6.262;2022-12-07T03:31:38;102483.00;;;1.80;100.00
28167;BME280;15455;53.376;-6.262;2022-12-07T03:34:34;102471.06;;;1.81;100.00
28167;BME280;15455;53.376;-6.262;2022-12-07T03:37:33;102475.47;;;1.83;100.00
28167;BME280;15455;53.376;-6.262;2022-12-07T03:40:29;102478.97;;;1.84;100.00
28167;BME280;15455;53.376;-6.262;2022-12-07T03:43:18;102471.25;;;1.84;100.00
28167;BME280;15455;53.376;-6.262;2022-12-07T03:55:02;102467.28;;;1.76;100.00
28167;BME280;15455;53.376;-6.262;2022-12-07T03:57:54;102472.44;;;1.76;100.00
28167;BME280;15455;53.376;-6.262;2022-12-07T04:00:42;102466.09;;;1.70;100.00
28167;BME280;15455;53.376;-6.262;2022-12-07T04:03:28;102463.53;;;1.70;100.00
28167;BME280;15455;53.376;-6.262;2022-12-07T04:06:13;102462.56;;;1.68;100.00
28167;BME280;15455;53.376;-6.262;2022-12-07T04:08:59;102459.81;;;1.65;100.00
28167;BME280;15455;53.376;-6.262;2022-12-07T04:11:44;102453.47;;;1.60;100.00
28167;BME280;15455;53.376;-6.262;2022-12-07T04:14:30;102464.50;;;1.58;100.00
28167;BME280;15455;53.376;-6.262;2022-12-07T04:17:16;102451.31;;;1.53;100.00
28167;BME280;15455;53.376;-6.262;2022-12-07T04:20:02;102456.28;;;1.50;100.00
28167;BME280;15455;53.376;-6.262;2022-12-07T04:22:49;102451.03;;;1.48;100.00
28167;BME280;15455;53.376;-6.262;2022-12-07T04:25:34;102452.72;;;1.48;100.00
28167;BME280;15455;53.376;-6.262;2022-12-07T04:28:20;102452.53;;;1.45;100.00
28167;BME280;15455;53.376;-6.262;2022-12-07T04:31:05;102446.31;;;1.41;100.00
28167;BME280;15455;53.376;-6.262;2022-12-07T04:33:51;102440.88;;;1.36;100.00
28167;BME280;15455;53.376;-6.262;2022-12-07T04:36:37;102438.81;;;1.31;100.00
28167;BME280;15455;53.376;-6.262;2022-12-07T04:42:10;102440.59;;;1.18;100.00
28167;BME280;15455;53.376;-6.262;2022-12-07T04:44:57;102439.63;;;1.16;100.00
28167;BME280;15455;53.376;-6.262;2022-12-07T04:47:43;102447.34;;;1.16;100.00
28167;BME280;15455;53.376;-6.262;2022-12-07T04:50:28;102443.88;;;1.16;100.00
28167;BME280;15455;53.376;-6.262;2022-12-07T04:53:14;102441.00;;;1.11;100.00
28167;BME280;15455;53.376;-6.262;2022-12-07T04:55:59;102435.84;;;1.11;100.00
28167;BME280;15455;53.376;-6.262;2022-12-07T04:58:47;102426.28;;;1.09;100.00
28167;BME280;15455;53.376;-6.262;2022-12-07T05:01:33;102432.22;;;1.08;100.00
28167;BME280;15455;53.376;-6.262;2022-12-07T05:04:18;102437.25;;;1.06;100.00
28167;BME280;15455;53.376;-6.262;2022-12-07T05:07:04;102439.94;;;1.08;100.00
28167;BME280;15455;53.376;-6.262;2022-12-07T05:09:49;102432.50;;;1.12;100.00
28167;BME280;15455;53.376;-6.262;2022-12-07T05:12:35;102433.78;;;1.19;100.00
28167;BME280;15455;53.376;-6.262;2022-12-07T05:15:20;102440.91;;;1.23;100.00
28167;BME280;15455;53.376;-6.262;2022-12-07T05:18:06;102438.72;;;1.29;100.00
28167;BME280;15455;53.376;-6.262;2022-12-07T05:20:51;102435.53;;;1.33;100.00
28167;BME280;15455;53.376;-6.262;2022-12-07T05:23:37;102444.22;;;1.35;100.00
28167;BME280;15455;53.376;-6.262;2022-12-07T05:26:22;102446.13;;;1.38;100.00
28167;BME280;15455;53.376;-6.262;2022-12-07T05:29:11;102434.44;;;1.43;100.00
28167;BME280;15455;53.376;-6.262;2022-12-07T05:31:57;102430.28;;;1.45;100.00
28167;BME280;15455;53.376;-6.262;2022-12-07T05:34:43;102432.84;;;1.45;100.00
28167;BME280;15455;53.376;-6.262;2022-12-07T05:37:29;102438.88;;;1.46;100.00
28167;BME280;15455;53.376;-6.262;2022-12-07T05:40:15;102435.41;;;1.45;100.00
28167;BME280;15455;53.376;-6.262;2022-12-07T05:43:01;102439.78;;;1.46;100.00
28167;BME280;15455;53.376;-6.262;2022-12-07T05:45:49;102427.59;;;1.44;100.00
28167;BME280;15455;53.376;-6.262;2022-12-07T05:48:34;102430.00;;;1.41;100.00
28167;BME280;15455;53.376;-6.262;2022-12-07T05:51:21;102431.56;;;1.38;100.00
28167;BME280;15455;53.376;-6.262;2022-12-07T05:54:07;102437.53;;;1.37;100.00
28167;BME280;15455;53.376;-6.262;2022-12-07T05:56:52;102437.34;;;1.34;100.00
28167;BME280;15455;53.376;-6.262;2022-12-07T05:59:38;102428.53;;;1.31;100.00
28167;BME280;15455;53.376;-6.262;2022-12-07T06:02:23;102436.84;;;1.27;100.00
28167;BME280;15455;53.376;-6.262;2022-12-07T06:05:09;102437.44;;;1.23;100.00
28167;BME280;15455;53.376;-6.262;2022-12-07T06:07:55;102431.13;;;1.17;100.00
28167;BME280;15455;53.376;-6.262;2022-12-07T06:10:47;102427.53;;;1.15;100.00
28167;BME280;15455;53.376;-6.262;2022-12-07T06:13:53;102428.28;;;1.13;100.00
28167;BME280;15455;53.376;-6.262;2022-12-07T06:16:38;102429.84;;;1.11;100.00
28167;BME280;15455;53.376;-6.262;2022-12-07T06:19:24;102426.47;;;1.12;100.00
28167;BME280;15455;53.376;-6.262;2022-12-07T06:22:10;102425.38;;;1.08;100.00
28167;BME280;15455;53.376;-6.262;2022-12-07T06:24:56;102421.94;;;1.08;100.00
28167;BME280;15455;53.376;-6.262;2022-12-07T06:27:42;102418.28;;;1.04;100.00
28167;BME280;15455;53.376;-6.262;2022-12-07T06:30:27;102424.03;;;1.00;100.00
28167;BME280;15455;53.376;-6.262;2022-12-07T06:33:13;102426.19;;;0.94;100.00
28167;BME280;15455;53.376;-6.262;2022-12-07T06:35:58;102418.78;;;0.85;100.00
28167;BME280;15455;53.376;-6.262;2022-12-07T06:38:43;102418.28;;;0.77;100.00
28167;BME280;15455;53.376;-6.262;2022-12-07T06:41:29;102427.38;;;0.72;100.00
28167;BME280;15455;53.376;-6.262;2022-12-07T06:44:15;102427.06;;;0.67;100.00
28167;BME280;15455;53.376;-6.262;2022-12-07T06:47:00;102421.75;;;0.64;100.00
28167;BME280;15455;53.376;-6.262;2022-12-07T06:50:06;102412.72;;;0.58;100.00
28167;BME280;15455;53.376;-6.262;2022-12-07T06:52:53;102416.03;;;0.55;100.00
28167;BME280;15455;53.376;-6.262;2022-12-07T06:55:38;102418.78;;;0.45;100.00
28167;BME280;15455;53.376;-6.262;2022-12-07T06:58:24;102425.38;;;0.41;100.00
28167;BME280;15455;53.376;-6.262;2022-12-07T07:01:14;102423.19;;;0.34;100.00
28167;BME280;15455;53.376;-6.262;2022-12-07T07:04:00;102419.75;;;0.33;100.00
28167;BME280;15455;53.376;-6.262;2022-12-07T07:06:46;102415.19;;;0.29;100.00
28167;BME280;15455;53.376;-6.262;2022-12-07T07:09:32;102427.25;;;0.30;100.00
28167;BME280;15455;53.376;-6.262;2022-12-07T07:12:17;102421.97;;;0.29;100.00
28167;BME280;15455;53.376;-6.262;2022-12-07T07:15:03;102417.75;;;0.29;100.00
28167;BME280;15455;53.376;-6.262;2022-12-07T07:17:48;102421.09;;;0.28;100.00
28167;BME280;15455;53.376;-6.262;2022-12-07T07:20:34;102423.09;;;0.32;100.00
28167;BME280;15455;53.376;-6.262;2022-12-07T07:23:20;102415.28;;;0.31;100.00
28167;BME280;15455;53.376;-6.262;2022-12-07T07:26:06;102417.19;;;0.33;100.00
28167;BME280;15455;53.376;-6.262;2022-12-07T07:28:52;102413.78;;;0.34;100.00
28167;BME280;15455;53.376;-6.262;2022-12-07T07:31:37;102418.34;;;0.39;100.00
28167;BME280;15455;53.376;-6.262;2022-12-07T07:34:22;102415.00;;;0.40;100.00
28167;BME280;15455;53.376;-6.262;2022-12-07T07:37:08;102420.25;;;0.41;100.00
28167;BME280;15455;53.376;-6.262;2022-12-07T07:39:59;102418.66;;;0.43;100.00
28167;BME280;15455;53.376;-6.262;2022-12-07T07:42:52;102424.00;;;0.46;100.00
28167;BME280;15455;53.376;-6.262;2022-12-07T07:45:38;102422.53;;;0.50;100.00
28167;BME280;15455;53.376;-6.262;2022-12-07T07:48:23;102425.97;;;0.50;100.00
28167;BME280;15455;53.376;-6.262;2022-12-07T07:51:10;102427.75;;;0.51;100.00
28167;BME280;15455;53.376;-6.262;2022-12-07T07:53:56;102429.44;;;0.51;100.00
28167;BME280;15455;53.376;-6.262;2022-12-07T07:56:42;102433.69;;;0.50;100.00
28167;BME280;15455;53.376;-6.262;2022-12-07T07:59:27;102424.22;;;0.49;100.00
28167;BME280;15455;53.376;-6.262;2022-12-07T08:02:16;102430.22;;;0.50;100.00
28167;BME280;15455;53.376;-6.262;2022-12-07T08:05:02;102436.16;;;0.49;100.00
28167;BME280;15455;53.376;-6.262;2022-12-07T08:07:48;102430.13;;;0.48;100.00
28167;BME280;15455;53.376;-6.262;2022-12-07T08:10:33;102434.50;;;0.49;100.00
28167;BME280;15455;53.376;-6.262;2022-12-07T08:13:20;102430.81;;;0.46;100.00
28167;BME280;15455;53.376;-6.262;2022-12-07T08:16:13;102425.47;;;0.43;100.00
28167;BME280;15455;53.376;-6.262;2022-12-07T08:19:00;102428.63;;;0.39;100.00
28167;BME280;15455;53.376;-6.262;2022-12-07T08:21:46;102426.63;;;0.34;100.00
28167;BME280;15455;53.376;-6.262;2022-12-07T08:24:35;102422.88;;;0.29;100.00
28167;BME280;15455;53.376;-6.262;2022-12-07T08:27:20;102419.22;;;0.26;100.00
28167;BME280;15455;53.376;-6.262;2022-12-07T08:30:09;102421.59;;;0.23;100.00
28167;BME280;15455;53.376;-6.262;2022-12-07T08:32:55;102414.25;;;0.15;100.00
28167;BME280;15455;53.376;-6.262;2022-12-07T08:35:41;102408.72;;;0.09;100.00
28167;BME280;15455;53.376;-6.262;2022-12-07T08:38:26;102409.88;;;0.01;100.00
28167;BME280;15455;53.376;-6.262;2022-12-07T08:41:16;102410.16;;;-0.08;100.00
28167;BME280;15455;53.376;-6.262;2022-12-07T08:44:03;102404.03;;;-0.10;100.00
28167;BME280;15455;53.376;-6.262;2022-12-07T08:47:00;102403.72;;;-0.14;100.00
28167;BME280;15455;53.376;-6.262;2022-12-07T08:49:48;102412.00;;;-0.19;100.00
28167;BME280;15455;53.376;-6.262;2022-12-07T08:52:35;102410.69;;;-0.25;100.00
28167;BME280;15455;53.376;-6.262;2022-12-07T08:55:22;102413.13;;;-0.27;100.00
28167;BME280;15455;53.376;-6.262;2022-12-07T08:58:08;102420.84;;;-0.27;100.00
28167;BME280;15455;53.376;-6.262;2022-12-07T09:00:54;102415.41;;;-0.31;100.00
28167;BME280;15455;53.376;-6.262;2022-12-07T09:03:39;102408.25;;;-0.36;100.00
28167;BME280;15455;53.376;-6.262;2022-12-07T09:06:25;102409.72;;;-0.39;100.00
28167;BME280;15455;53.376;-6.262;2022-12-07T09:09:11;102404.38;;;-0.42;100.00
28167;BME280;15455;53.376;-6.262;2022-12-07T09:11:57;102405.19;;;-0.43;100.00
28167;BME280;15455;53.376;-6.262;2022-12-07T09:14:42;102411.19;;;-0.43;100.00
28167;BME280;15455;53.376;-6.262;2022-12-07T09:17:32;102417.19;;;-0.42;100.00
28167;BME280;15455;53.376;-6.262;2022-12-07T09:20:18;102412.97;;;-0.42;100.00
28167;BME280;15455;53.376;-6.262;2022-12-07T09:23:11;102410.63;;;-0.39;100.00
28167;BME280;15455;53.376;-6.262;2022-12-07T09:26:01;102409.81;;;-0.38;100.00
28167;BME280;15455;53.376;-6.262;2022-12-07T09:28:54;102403.91;;;-0.37;100.00
28167;BME280;15455;53.376;-6.262;2022-12-07T09:31:40;102408.94;;;-0.38;100.00
28167;BME280;15455;53.376;-6.262;2022-12-07T09:34:26;102409.81;;;-0.38;100.00
28167;BME280;15455;53.376;-6.262;2022-12-07T09:37:11;102401.91;;;-0.41;100.00
28167;BME280;15455;53.376;-6.262;2022-12-07T09:39:57;102405.97;;;-0.44;100.00
28167;BME280;15455;53.376;-6.262;2022-12-07T09:42:45;102417.00;;;-0.45;100.00
28167;BME280;15455;53.376;-6.262;2022-12-07T09:45:35;102408.31;;;-0.47;100.00
28167;BME280;15455;53.376;-6.262;2022-12-07T09:48:33;102408.22;;;-0.49;100.00
28167;BME280;15455;53.376;-6.262;2022-12-07T09:51:24;102409.75;;;-0.51;100.00
28167;BME280;15455;53.376;-6.262;2022-12-07T09:54:15;102405.41;;;-0.52;100.00
28167;BME280;15455;53.376;-6.262;2022-12-07T09:57:01;102406.22;;;-0.53;100.00
28167;BME280;15455;53.376;-6.262;2022-12-07T09:59:47;102406.22;;;-0.53;100.00
28167;BME280;15455;53.376;-6.262;2022-12-07T10:02:39;102399.19;;;-0.56;100.00
28167;BME280;15455;53.376;-6.262;2022-12-07T10:05:28;102395.53;;;-0.59;100.00
28167;BME280;15455;53.376;-6.262;2022-12-07T10:08:15;102399.75;;;-0.60;100.00
28167;BME280;15455;53.376;-6.262;2022-12-07T10:11:02;102393.66;;;-0.62;100.00
28167;BME280;15455;53.376;-6.262;2022-12-07T10:14:12;102397.19;;;-0.60;100.00
28167;BME280;15455;53.376;-6.262;2022-12-07T10:16:58;102390.28;;;-0.61;100.00
28167;BME280;15455;53.376;-6.262;2022-12-07T10:19:43;102391.75;;;-0.64;100.00
28167;BME280;15455;53.376;-6.262;2022-12-07T10:22:28;102396.56;;;-0.69;100.00
28167;BME280;15455;53.376;-6.262;2022-12-07T10:25:21;102386.19;;;-0.71;100.00
28167;BME280;15455;53.376;-6.262;2022-12-07T10:30:57;102386.41;;;-0.67;100.00
28167;BME280;15455;53.376;-6.262;2022-12-07T10:34:12;102386.72;;;-0.63;100.00
28167;BME280;15455;53.376;-6.262;2022-12-07T10:37:26;102380.09;;;-0.47;100.00
28167;BME280;15455;53.376;-6.262;2022-12-07T10:40:34;102385.38;;;-0.32;100.00
28167;BME280;15455;53.376;-6.262;2022-12-07T10:43:20;102381.22;;;-0.19;100.00
28167;BME280;15455;53.376;-6.262;2022-12-07T10:52:21;102376.03;;;0.20;100.00
28167;BME280;15455;53.376;-6.262;2022-12-07T10:55:34;102365.00;;;0.34;100.00
28167;BME280;15455;53.376;-6.262;2022-12-07T11:01:57;102370.06;;;0.60;100.00
28167;BME280;15455;53.376;-6.262;2022-12-07T11:05:02;102354.44;;;0.70;100.00
28167;BME280;15455;53.376;-6.262;2022-12-07T11:11:06;102349.97;;;0.94;100.00
28167;BME280;15455;53.376;-6.262;2022-12-07T11:17:14;102348.34;;;1.10;100.00
28167;BME280;15455;53.376;-6.262;2022-12-07T11:20:15;102335.16;;;1.18;100.00
28167;BME280;15455;53.376;-6.262;2022-12-07T11:29:53;102316.81;;;1.41;100.00
28167;BME280;15455;53.376;-6.262;2022-12-07T11:38:57;102304.69;;;1.68;100.00
28167;BME280;15455;53.376;-6.262;2022-12-07T11:41:48;102312.94;;;1.77;100.00
28167;BME280;15455;53.376;-6.262;2022-12-07T11:45:02;102289.25;;;1.83;100.00
28167;BME280;15455;53.376;-6.262;2022-12-07T11:48:11;102287.03;;;1.89;100.00
28167;BME280;15455;53.376;-6.262;2022-12-07T11:51:01;102290.16;;;1.98;100.00
28167;BME280;15455;53.376;-6.262;2022-12-07T11:53:59;102282.84;;;2.06;100.00
28167;BME280;15455;53.376;-6.262;2022-12-07T11:56:50;102274.84;;;2.16;100.00
28167;BME280;15455;53.376;-6.262;2022-12-07T11:59:39;102258.06;;;2.23;100.00
28167;BME280;15455;53.376;-6.262;2022-12-07T12:02:34;102259.47;;;2.33;100.00
28167;BME280;15455;53.376;-6.262;2022-12-07T12:05:24;102249.41;;;2.37;100.00
28167;BME280;15455;53.376;-6.262;2022-12-07T12:08:21;102240.06;;;2.39;100.00
28167;BME280;15455;53.376;-6.262;2022-12-07T12:21:07;102233.66;;;2.64;100.00
28167;BME280;15455;53.376;-6.262;2022-12-07T12:24:04;102219.69;;;2.92;100.00
28167;BME280;15455;53.376;-6.262;2022-12-07T12:27:03;102208.72;;;3.12;100.00
28167;BME280;15455;53.376;-6.262;2022-12-07T12:29:55;102208.22;;;3.20;100.00
28167;BME280;15455;53.376;-6.262;2022-12-07T12:32:44;102196.69;;;3.29;100.00
28167;BME280;15455;53.376;-6.262;2022-12-07T12:35:33;102188.38;;;3.35;100.00
28167;BME280;15455;53.376;-6.262;2022-12-07T12:38:26;102185.03;;;3.38;100.00
28167;BME280;15455;53.376;-6.262;2022-12-07T12:47:39;102174.03;;;3.58;100.00
28167;BME280;15455;53.376;-6.262;2022-12-07T12:50:36;102170.69;;;3.61;100.00
28167;BME280;15455;53.376;-6.262;2022-12-07T12:53:23;102162.00;;;3.59;100.00
28167;BME280;15455;53.376;-6.262;2022-12-07T13:08:17;102145.69;;;3.78;100.00
28167;BME280;15455;53.376;-6.262;2022-12-07T13:11:25;102143.69;;;3.72;100.00
28167;BME280;15455;53.376;-6.262;2022-12-07T13:29:20;102141.41;;;3.60;100.00
28167;BME280;15455;53.376;-6.262;2022-12-07T13:32:25;102136.31;;;3.62;100.00
28167;BME280;15455;53.376;-6.262;2022-12-07T13:38:29;102133.44;;;3.56;100.00
28167;BME280;15455;53.376;-6.262;2022-12-07T13:41:19;102130.66;;;3.51;100.00
28167;BME280;15455;53.376;-6.262;2022-12-07T13:44:12;102124.66;;;3.52;100.00
28167;BME280;15455;53.376;-6.262;2022-12-07T13:49:56;102128.44;;;3.59;100.00
28167;BME280;15455;53.376;-6.262;2022-12-07T13:52:44;102126.72;;;3.59;100.00
28167;BME280;15455;53.376;-6.262;2022-12-07T13:55:30;102118.91;;;3.58;100.00
28167;BME280;15455;53.376;-6.262;2022-12-07T13:58:16;102117.31;;;3.60;100.00
28167;BME280;15455;53.376;-6.262;2022-12-07T14:01:02;102115.66;;;3.62;100.00
28167;BME280;15455;53.376;-6.262;2022-12-07T14:03:47;102111.47;;;3.64;100.00
28167;BME280;15455;53.376;-6.262;2022-12-07T14:06:33;102108.91;;;3.64;100.00
28167;BME280;15455;53.376;-6.262;2022-12-07T14:09:24;102107.41;;;3.69;100.00
28167;BME280;15455;53.376;-6.262;2022-12-07T14:12:12;102099.06;;;3.75;100.00
28167;BME280;15455;53.376;-6.262;2022-12-07T14:15:00;102086.00;;;3.72;100.00
28167;BME280;15455;53.376;-6.262;2022-12-07T14:17:52;102081.44;;;3.66;100.00
28167;BME280;15455;53.376;-6.262;2022-12-07T14:20:39;102081.38;;;3.64;100.00
28167;BME280;15455;53.376;-6.262;2022-12-07T14:23:27;102076.13;;;3.63;100.00
28167;BME280;15455;53.376;-6.262;2022-12-07T14:26:14;102070.31;;;3.67;100.00
28167;BME280;15455;53.376;-6.262;2022-12-07T14:29:30;102063.31;;;3.64;100.00
28167;BME280;15455;53.376;-6.262;2022-12-07T14:32:35;102065.09;;;3.65;100.00
28167;BME280;15455;53.376;-6.262;2022-12-07T14:35:22;102066.81;;;3.67;100.00
28167;BME280;15455;53.376;-6.262;2022-12-07T14:38:07;102066.03;;;3.68;100.00
28167;BME280;15455;53.376;-6.262;2022-12-07T14:40:53;102061.81;;;3.70;100.00
28167;BME280;15455;53.376;-6.262;2022-12-07T14:44:00;102052.25;;;3.67;100.00
28167;BME280;15455;53.376;-6.262;2022-12-07T14:47:09;102049.59;;;3.65;100.00
28167;BME280;15455;53.376;-6.262;2022-12-07T14:50:17;102050.25;;;3.61;100.00
28167;BME280;15455;53.376;-6.262;2022-12-07T14:53:12;102051.00;;;3.59;100.00
28167;BME280;15455;53.376;-6.262;2022-12-07T14:56:14;102048.19;;;3.54;100.00
28167;BME280;15455;53.376;-6.262;2022-12-07T14:58:59;102053.44;;;3.56;100.00
28167;BME280;15455;53.376;-6.262;2022-12-07T15:01:45;102044.13;;;3.59;100.00
28167;BME280;15455;53.376;-6.262;2022-12-07T15:04:31;102040.53;;;3.56;100.00
28167;BME280;15455;53.376;-6.262;2022-12-07T15:07:19;102039.41;;;3.51;100.00
28167;BME280;15455;53.376;-6.262;2022-12-07T15:10:11;102044.28;;;3.44;100.00
28167;BME280;15455;53.376;-6.262;2022-12-07T15:13:03;102038.19;;;3.42;100.00
28167;BME280;15455;53.376;-6.262;2022-12-07T15:16:10;102039.84;;;3.42;100.00
28167;BME280;15455;53.376;-6.262;2022-12-07T15:18:57;102043.34;;;3.42;100.00
28167;BME280;15455;53.376;-6.262;2022-12-07T15:22:03;102035.81;;;3.47;100.00
28167;BME280;15455;53.376;-6.262;2022-12-07T15:24:48;102036.97;;;3.54;100.00
28167;BME280;15455;53.376;-6.262;2022-12-07T15:27:34;102030.19;;;3.56;100.00
28167;BME280;15455;53.376;-6.262;2022-12-07T15:30:19;102023.25;;;3.55;100.00
28167;BME280;15455;53.376;-6.262;2022-12-07T15:33:05;102014.56;;;3.53;100.00
28167;BME280;15455;53.376;-6.262;2022-12-07T15:35:50;102017.00;;;3.50;100.00
28167;BME280;15455;53.376;-6.262;2022-12-07T15:38:36;102015.97;;;3.46;100.00
28167;BME280;15455;53.376;-6.262;2022-12-07T15:41:41;102015.09;;;3.45;100.00
28167;BME280;15455;53.376;-6.262;2022-12-07T15:44:27;102014.19;;;3.45;100.00
28167;BME280;15455;53.376;-6.262;2022-12-07T15:47:48;102001.81;;;3.38;100.00
28167;BME280;15455;53.376;-6.262;2022-12-07T15:50:53;102001.31;;;3.27;100.00
28167;BME280;15455;53.376;-6.262;2022-12-07T15:53:46;102005.88;;;3.15;100.00
28167;BME280;15455;53.376;-6.262;2022-12-07T15:56:32;102012.31;;;3.05;100.00
28167;BME280;15455;53.376;-6.262;2022-12-07T15:59:17;102011.03;;;2.97;100.00
28167;BME280;15455;53.376;-6.262;2022-12-07T16:02:03;102010.50;;;2.86;100.00
28167;BME280;15455;53.376;-6.262;2022-12-07T16:04:49;102004.91;;;2.76;100.00
28167;BME280;15455;53.376;-6.262;2022-12-07T16:07:35;102000.16;;;2.68;100.00
28167;BME280;15455;53.376;-6.262;2022-12-07T16:10:21;101998.00;;;2.59;100.00
28167;BME280;15455;53.376;-6.262;2022-12-07T16:13:06;102000.94;;;2.49;100.00
28167;BME280;15455;53.376;-6.262;2022-12-07T16:15:52;102010.13;;;2.43;100.00
28167;BME280;15455;53.376;-6.262;2022-12-07T16:18:37;102010.59;;;2.36;100.00
28167;BME280;15455;53.376;-6.262;2022-12-07T16:21:22;102004.50;;;2.34;100.00
28167;BME280;15455;53.376;-6.262;2022-12-07T16:24:10;102005.94;;;2.29;100.00
28167;BME280;15455;53.376;-6.262;2022-12-07T16:26:56;101998.63;;;2.20;100.00